Time;durP1;ratioP1;P1;durP2;ratioP2;P2;SDS_P1;SDS_P2;PMS_P1;PMS_P2;Temp;Humidity;BMP_temperature;BMP_pressure;BME280_temperature;BME280_humidity;BME280_pressure;Samples;Min_cycle;Max_cycle;Signal;HPM_P1;HPM_P2
2023/10/23 00:01:13;;;;;;;;;7.75;4.25;;;;;-143.90;100.00;75443.06;4992513;27;103526;-75
2023/10/23 00:03:40;;;;;;;;;6.50;4.25;;;;;-143.90;100.00;75451.31;4992545;27;103350;-75
2023/10/23 00:06:08;;;;;;;;;7.00;7.00;;;;;-143.90;100.00;75457.53;4974834;27;101905;-75
2023/10/23 00:08:34;;;;;;;;;3.75;3.75;;;;;-143.90;100.00;75457.53;5000813;27;101916;-74
2023/10/23 00:11:01;;;;;;;;;6.75;4.00;;;;;-143.90;100.00;75461.66;4986809;28;102606;-74
2023/10/23 00:13:28;;;;;;;;;6.00;6.00;;;;;-143.90;100.00;75469.94;4993508;27;101835;-75
2023/10/23 00:15:54;;;;;;;;;7.00;6.25;;;;;-143.90;100.00;75465.81;4989067;27;102948;-75
2023/10/23 00:18:21;;;;;;;;;7.00;7.00;;;;;-143.90;100.00;75469.94;4980896;27;101962;-75
2023/10/23 00:20:48;;;;;;;;;4.00;4.00;;;;;-143.90;100.00;75469.94;4971531;28;103450;-74
2023/10/23 00:23:14;;;;;;;;;5.00;5.00;;;;;-143.90;100.00;75469.94;4997835;27;101642;-75
2023/10/23 00:25:41;;;;;;;;;1.75;1.25;;;;;-143.90;100.00;75482.34;4970347;28;102165;-75
2023/10/23 00:28:08;;;;;;;;;2.50;2.50;;;;;-143.90;100.00;75482.34;4995902;27;102016;-75
2023/10/23 00:30:35;;;;;;;;;4.00;2.75;;;;;-143.90;100.00;75482.34;4986549;28;105617;-75
2023/10/23 00:33:02;;;;;;;;;7.50;5.00;;;;;-143.90;100.00;75480.28;4989174;27;102777;-75
2023/10/23 00:35:29;;;;;;;;;2.00;2.00;;;;;-143.90;100.00;75482.34;4972499;28;102488;-73
2023/10/23 00:37:56;;;;;;;;;7.25;6.75;;;;;-143.90;100.00;75486.47;4992091;27;101891;-75
2023/10/23 00:40:23;;;;;;;;;6.50;6.00;;;;;-143.90;100.00;75496.81;4989834;27;104809;-76
2023/10/23 00:42:49;;;;;;;;;7.50;7.00;;;;;-143.90;100.00;75505.09;4982826;27;105261;-75
2023/10/23 00:45:16;;;;;;;;;2.00;2.00;;;;;-143.90;100.00;75511.28;4989473;27;101996;-75
2023/10/23 00:47:43;;;;;;;;;4.75;4.75;;;;;-143.90;100.00;75519.56;4988807;27;101706;-75
2023/10/23 00:50:10;;;;;;;;;5.25;5.25;;;;;-143.90;100.00;75529.91;4990937;27;103495;-75
2023/10/23 00:52:37;;;;;;;;;4.25;4.00;;;;;-143.90;100.00;75525.75;4991705;28;104915;-75
2023/10/23 00:55:04;;;;;;;;;2.25;2.00;;;;;-143.90;100.00;75523.69;4984958;27;101863;-74
2023/10/23 00:57:31;;;;;;;;;6.75;4.00;;;;;-143.90;100.00;75521.63;4990640;27;101927;-72
2023/10/23 00:59:58;;;;;;;;;6.75;6.25;;;;;-143.90;100.00;75517.50;4992635;28;103477;-75
2023/10/23 01:02:25;;;;;;;;;5.25;3.00;;;;;-143.90;100.00;75519.56;4997488;27;102089;-74
2023/10/23 01:04:52;;;;;;;;;5.00;5.00;;;;;-143.90;100.00;75519.56;4991665;27;101617;-75
2023/10/23 01:07:19;;;;;;;;;7.00;6.50;;;;;-143.90;100.00;75517.50;4971894;27;101593;-74
2023/10/23 01:09:45;;;;;;;;;4.00;4.00;;;;;-143.90;100.00;75515.41;4992224;27;103769;-75
2023/10/23 01:12:12;;;;;;;;;4.00;4.00;;;;;-143.90;100.00;75521.63;4997278;27;101851;-75
2023/10/23 01:14:39;;;;;;;;;3.00;1.00;;;;;-143.90;100.00;75515.41;4989743;27;101812;-75
2023/10/23 01:17:05;;;;;;;;;4.00;4.00;;;;;-143.90;100.00;75523.69;4980996;27;101629;-76
2023/10/23 01:19:32;;;;;;;;;4.00;3.25;;;;;-143.90;100.00;75523.69;4994974;28;103298;-74
2023/10/23 01:21:58;;;;;;;;;3.25;3.25;;;;;-143.90;100.00;75519.56;4996514;27;101997;-75
2023/10/23 01:24:26;;;;;;;;;2.50;2.00;;;;;-143.90;100.00;75519.56;4996678;27;101900;-75
2023/10/23 01:26:54;;;;;;;;;1.50;1.25;;;;;-143.90;100.00;75519.56;4993054;27;101815;-75
2023/10/23 01:29:21;;;;;;;;;2.50;2.50;;;;;-143.90;100.00;75523.69;4992311;27;103829;-75
2023/10/23 01:31:48;;;;;;;;;2.00;1.75;;;;;-143.90;100.00;75527.81;4990400;27;101761;-76
2023/10/23 01:34:14;;;;;;;;;2.50;1.75;;;;;-143.90;100.00;75534.03;4997051;27;102199;-75
2023/10/23 01:36:41;;;;;;;;;2.50;2.50;;;;;-143.90;100.00;75536.09;4978068;28;101602;-75
2023/10/23 01:39:07;;;;;;;;;4.00;4.00;;;;;-143.90;100.00;75542.31;4993655;27;103326;-75
2023/10/23 01:41:34;;;;;;;;;2.25;2.25;;;;;-143.90;100.00;75536.09;4995518;27;102140;-75
2023/10/23 01:44:02;;;;;;;;;2.50;2.50;;;;;-143.90;100.00;75540.22;4999260;27;101876;-75
2023/10/23 01:46:28;;;;;;;;;4.00;4.00;;;;;-143.90;100.00;75544.38;4993375;27;102109;-75
2023/10/23 01:48:55;;;;;;;;;3.00;3.00;;;;;-143.90;100.00;75536.09;4995317;27;103543;-75
2023/10/23 01:51:22;;;;;;;;;2.00;2.00;;;;;-143.90;100.00;75544.38;4994411;28;101918;-75
2023/10/23 01:53:48;;;;;;;;;2.00;2.00;;;;;-143.90;100.00;75544.38;4996776;27;101900;-75
2023/10/23 01:56:15;;;;;;;;;2.75;2.00;;;;;-143.90;100.00;75552.63;4974430;27;102022;-75
2023/10/23 01:58:42;;;;;;;;;3.50;3.50;;;;;-143.90;100.00;75548.50;4999211;27;103379;-75
2023/10/23 02:01:21;;;;;;;;;2.75;2.75;;;;;-143.90;100.00;75544.38;4993873;27;101802;-75
2023/10/23 02:03:50;;;;;;;;;2.00;2.00;;;;;-143.90;100.00;75550.56;4993151;27;101996;-76
2023/10/23 02:06:16;;;;;;;;;3.75;3.75;;;;;-143.90;100.00;75550.56;4993865;27;101882;-75
2023/10/23 02:08:43;;;;;;;;;1.25;1.25;;;;;-143.90;100.00;75550.56;4994708;27;102898;-75
2023/10/23 02:11:10;;;;;;;;;2.25;2.25;;;;;-143.90;100.00;75550.56;4992072;27;101931;-75
2023/10/23 02:13:37;;;;;;;;;4.00;3.50;;;;;-143.90;100.00;75546.44;4998320;27;101676;-75
2023/10/23 02:16:04;;;;;;;;;7.00;6.00;;;;;-143.90;100.00;75548.50;4994287;27;101962;-75
2023/10/23 02:18:30;;;;;;;;;9.00;6.75;;;;;-143.90;100.00;75554.72;4999741;27;104936;-75
2023/10/23 02:20:57;;;;;;;;;4.50;4.00;;;;;-143.90;100.00;75548.50;4963736;27;102591;-75
2023/10/23 02:23:24;;;;;;;;;2.75;2.00;;;;;-143.90;100.00;75552.63;4998735;27;101732;-75
2023/10/23 02:25:50;;;;;;;;;4.50;4.00;;;;;-143.90;100.00;75546.44;4998591;28;101843;-76
2023/10/23 02:28:17;;;;;;;;;3.50;2.50;;;;;-143.90;100.00;75546.44;4997977;28;102931;-76
2023/10/23 02:30:44;;;;;;;;;7.00;5.00;;;;;-143.90;100.00;75546.44;4991427;28;102183;-74
2023/10/23 02:33:11;;;;;;;;;4.00;3.00;;;;;-143.90;100.00;75546.44;4999303;27;101779;-74
2023/10/23 02:35:37;;;;;;;;;2.50;2.25;;;;;-143.90;100.00;75548.50;4992952;28;101714;-74
2023/10/23 02:38:04;;;;;;;;;3.50;3.25;;;;;-143.90;100.00;75548.50;4996072;27;103423;-74
2023/10/23 02:40:31;;;;;;;;;5.25;3.00;;;;;-143.90;100.00;75554.72;4995604;28;102773;-74
2023/10/23 02:42:57;;;;;;;;;3.75;3.50;;;;;-143.90;100.00;75556.78;5000518;27;101848;-75
2023/10/23 02:45:24;;;;;;;;;5.00;4.00;;;;;-143.90;100.00;75560.91;4995258;27;101639;-75
2023/10/23 02:47:50;;;;;;;;;4.75;4.75;;;;;-143.90;100.00;75560.91;4998519;27;104271;-75
2023/10/23 02:50:17;;;;;;;;;5.75;5.75;;;;;-143.90;100.00;75560.91;4993625;27;102030;-75
2023/10/23 02:52:44;;;;;;;;;7.25;7.00;;;;;-143.90;100.00;75556.78;5000644;27;101599;-75
2023/10/23 02:55:10;;;;;;;;;7.00;6.00;;;;;-143.90;100.00;75552.63;4990103;28;102531;-75
2023/10/23 02:57:37;;;;;;;;;4.25;3.50;;;;;-143.90;100.00;75550.56;4996729;27;103560;-75
2023/10/23 03:00:05;;;;;;;;;5.00;4.25;;;;;-143.90;100.00;75554.72;4992241;27;101965;-74
2023/10/23 03:02:33;;;;;;;;;1.00;1.00;;;;;-143.90;100.00;75544.38;4976214;27;102124;-74
2023/10/23 03:04:59;;;;;;;;;3.50;3.50;;;;;-143.90;100.00;75540.22;4994355;27;102668;-75
2023/10/23 03:07:26;;;;;;;;;6.00;4.00;;;;;-143.90;100.00;75542.31;4969098;28;103283;-76
2023/10/23 03:09:53;;;;;;;;;2.00;2.00;;;;;-143.90;100.00;75548.50;4989051;28;101636;-76
2023/10/23 03:12:19;;;;;;;;;4.00;3.00;;;;;-143.90;100.00;75544.38;4995290;27;101825;-76
2023/10/23 03:14:46;;;;;;;;;3.75;3.00;;;;;-143.90;100.00;75544.38;4994641;27;102240;-75
2023/10/23 03:17:12;;;;;;;;;6.25;4.00;;;;;-143.90;100.00;75544.38;4990500;27;102355;-75
2023/10/23 03:19:39;;;;;;;;;3.50;3.50;;;;;-143.90;100.00;75544.38;4975547;27;101870;-75
2023/10/23 03:22:06;;;;;;;;;6.75;4.00;;;;;-143.90;100.00;75542.31;4994275;27;101819;-75
2023/10/23 03:24:32;;;;;;;;;4.00;4.00;;;;;-143.90;100.00;75552.63;4996353;27;102946;-75
2023/10/23 03:26:59;;;;;;;;;2.00;2.00;;;;;-143.90;100.00;75548.50;4994494;27;103938;-76
2023/10/23 03:29:26;;;;;;;;;4.00;4.00;;;;;-143.90;100.00;75548.50;4993018;27;101802;-76
2023/10/23 03:31:53;;;;;;;;;5.00;3.00;;;;;-143.90;100.00;75542.31;4993842;27;101644;-76
2023/10/23 03:34:20;;;;;;;;;5.00;4.00;;;;;-143.90;100.00;75542.31;4992155;27;101541;-76
2023/10/23 03:36:46;;;;;;;;;3.75;3.75;;;;;-143.90;100.00;75544.38;4995363;28;103654;-75
2023/10/23 03:39:13;;;;;;;;;7.00;5.00;;;;;-143.90;100.00;75540.22;4988935;28;103134;-76
2023/10/23 03:41:41;;;;;;;;;3.75;3.75;;;;;-143.90;100.00;75544.38;4976019;27;106508;-75
2023/10/23 03:44:08;;;;;;;;;3.75;3.75;;;;;-143.90;100.00;75544.38;4990744;27;102713;-75
2023/10/23 03:46:34;;;;;;;;;4.25;3.25;;;;;-143.90;100.00;75548.50;4995436;27;103416;-75
2023/10/23 03:49:01;;;;;;;;;3.00;1.75;;;;;-143.90;100.00;75550.56;4997121;27;101959;-76
2023/10/23 03:51:30;;;;;;;;;3.00;2.00;;;;;-143.90;100.00;75544.38;4988078;27;101933;-76
2023/10/23 03:53:57;;;;;;;;;3.00;3.00;;;;;-143.90;100.00;75546.44;4992421;28;102117;-76
2023/10/23 03:56:23;;;;;;;;;4.00;4.00;;;;;-143.90;100.00;75544.38;4990973;27;103514;-77
2023/10/23 03:58:50;;;;;;;;;4.00;4.00;;;;;-143.90;100.00;75546.44;4993033;27;101594;-76
2023/10/23 04:01:16;;;;;;;;;3.50;3.00;;;;;-143.90;100.00;75548.50;4970932;28;101870;-76
2023/10/23 04:03:43;;;;;;;;;2.50;2.00;;;;;-143.90;100.00;75552.63;4994412;27;101684;-75
2023/10/23 04:06:10;;;;;;;;;3.00;3.00;;;;;-143.90;100.00;75558.84;4973002;28;103365;-74
2023/10/23 04:08:37;;;;;;;;;3.50;3.50;;;;;-143.90;100.00;75562.97;4995120;27;101622;-74
2023/10/23 04:11:04;;;;;;;;;3.00;3.00;;;;;-143.90;100.00;75554.72;4994496;27;101944;-75
2023/10/23 04:13:33;;;;;;;;;3.00;2.00;;;;;-143.90;100.00;75562.97;4997254;27;101947;-74
2023/10/23 04:16:02;;;;;;;;;1.50;1.50;;;;;-143.90;100.00;75552.63;4993425;27;107952;-75
2023/10/23 04:18:29;;;;;;;;;2.00;1.00;;;;;-143.90;100.00;75554.72;4995330;28;102856;-75
2023/10/23 04:21:07;;;;;;;;;2.00;2.00;;;;;-143.90;100.00;75560.91;4967619;28;101601;-76
2023/10/23 04:23:36;;;;;;;;;2.00;2.00;;;;;-143.90;100.00;75567.13;4970675;28;102006;-74
2023/10/23 04:26:04;;;;;;;;;2.50;2.00;;;;;-143.90;100.00;75573.31;4991891;27;103536;-74
2023/10/23 04:28:31;;;;;;;;;1.00;1.00;;;;;-143.90;100.00;75577.44;4999310;27;101650;-74
2023/10/23 04:30:58;;;;;;;;;2.50;2.00;;;;;-143.90;100.00;75577.44;4974845;27;102486;-75
2023/10/23 04:33:25;;;;;;;;;2.00;2.00;;;;;-143.90;100.00;75581.59;4995789;27;101608;-74
2023/10/23 04:35:54;;;;;;;;;0.00;0.00;;;;;-143.90;100.00;75587.78;4995929;27;103618;-75
2023/10/23 04:38:22;;;;;;;;;3.50;2.75;;;;;-143.90;100.00;75591.94;4994405;27;101839;-74
2023/10/23 04:40:50;;;;;;;;;3.00;2.50;;;;;-143.90;100.00;75589.84;4994403;28;101776;-75
2023/10/23 04:43:17;;;;;;;;;3.25;3.25;;;;;-143.90;100.00;75587.78;4997982;27;102098;-74
2023/10/23 04:45:43;;;;;;;;;3.50;3.50;;;;;-143.90;100.00;75581.59;4991501;27;103541;-74
2023/10/23 04:48:10;;;;;;;;;1.75;1.50;;;;;-143.90;100.00;75581.59;5002118;27;101442;-75
2023/10/23 04:50:38;;;;;;;;;3.00;2.75;;;;;-143.90;100.00;75577.44;4992429;28;101881;-75
2023/10/23 04:53:06;;;;;;;;;2.50;2.00;;;;;-143.90;100.00;75573.31;4983454;28;101968;-74
2023/10/23 04:55:33;;;;;;;;;4.00;2.50;;;;;-143.90;100.00;75577.44;4971755;27;105032;-73
2023/10/23 04:58:00;;;;;;;;;5.00;4.00;;;;;-143.90;100.00;75573.31;5003442;27;101648;-75
2023/10/23 05:00:28;;;;;;;;;7.00;6.00;;;;;-143.90;100.00;75573.31;4991972;28;101600;-75
2023/10/23 05:02:55;;;;;;;;;6.00;6.00;;;;;-143.90;100.00;75569.19;5002333;27;102044;-74
2023/10/23 05:05:22;;;;;;;;;5.50;4.00;;;;;-143.90;100.00;75573.31;4990512;27;103328;-75
2023/10/23 05:07:49;;;;;;;;;2.25;2.25;;;;;-143.90;100.00;75569.19;4996422;27;101944;-74
2023/10/23 05:10:15;;;;;;;;;1.50;1.00;;;;;-143.90;100.00;75571.25;4965122;28;101815;-74
2023/10/23 05:12:42;;;;;;;;;5.75;4.75;;;;;-143.90;100.00;75575.38;4998647;27;102196;-75
2023/10/23 05:15:11;;;;;;;;;4.25;3.00;;;;;-143.90;100.00;75567.13;4992635;28;103201;-75
2023/10/23 05:17:38;;;;;;;;;6.75;3.50;;;;;-143.90;100.00;75577.44;5001995;27;101667;-74
2023/10/23 05:20:05;;;;;;;;;7.00;5.50;;;;;-143.90;100.00;75575.38;4991812;28;101894;-75
2023/10/23 05:22:32;;;;;;;;;5.75;5.75;;;;;-143.90;100.00;75569.19;5001604;27;101820;-74
2023/10/23 05:24:59;;;;;;;;;4.00;4.00;;;;;-143.90;100.00;75567.13;4996351;27;108025;-74
2023/10/23 05:27:26;;;;;;;;;2.00;2.00;;;;;-143.90;100.00;75573.31;4994355;27;102860;-74
2023/10/23 05:29:52;;;;;;;;;8.75;7.75;;;;;-143.90;100.00;75573.31;4989859;27;101721;-74
2023/10/23 05:32:21;;;;;;;;;9.50;8.00;;;;;-143.90;100.00;75573.31;4976111;28;101610;-75
2023/10/23 05:34:47;;;;;;;;;7.50;7.00;;;;;-143.90;100.00;75583.66;4989058;27;103618;-76
2023/10/23 05:37:14;;;;;;;;;5.50;5.50;;;;;-143.90;100.00;75583.66;5000740;27;101723;-75
2023/10/23 05:39:41;;;;;;;;;6.00;5.25;;;;;-143.90;100.00;75577.44;4994641;27;101602;-75
2023/10/23 05:42:07;;;;;;;;;3.75;3.00;;;;;-143.90;100.00;75577.44;4998647;27;102012;-75
2023/10/23 05:44:34;;;;;;;;;16.50;12.25;;;;;-143.90;100.00;75585.72;4992334;27;102624;-76
2023/10/23 05:47:01;;;;;;;;;7.75;6.75;;;;;-143.90;100.00;75577.44;4995718;27;101817;-75
2023/10/23 05:49:28;;;;;;;;;7.00;7.00;;;;;-143.90;100.00;75577.44;4986408;27;102200;-74
2023/10/23 05:51:54;;;;;;;;;7.50;7.50;;;;;-143.90;100.00;75577.44;4994171;27;103328;-75
2023/10/23 05:54:21;;;;;;;;;6.50;4.50;;;;;-143.90;100.00;75579.53;4988642;27;103140;-75
2023/10/23 05:56:48;;;;;;;;;11.25;9.00;;;;;-143.90;100.00;75577.44;4987077;28;101664;-75
2023/10/23 05:59:14;;;;;;;;;6.75;5.25;;;;;-143.90;100.00;75575.38;4995125;27;101624;-75
2023/10/23 06:01:41;;;;;;;;;4.50;4.50;;;;;-143.90;100.00;75569.19;4996913;27;101921;-76
2023/10/23 06:04:07;;;;;;;;;3.00;3.00;;;;;-143.90;100.00;75565.03;4989671;28;103372;-75
2023/10/23 06:06:34;;;;;;;;;4.25;3.75;;;;;-143.90;100.00;75560.91;4977783;27;101864;-75
2023/10/23 06:09:01;;;;;;;;;7.50;4.25;;;;;-143.90;100.00;75552.63;4999024;28;101635;-75
2023/10/23 06:11:27;;;;;;;;;5.00;4.50;;;;;-143.90;100.00;75548.50;4996411;27;102618;-75
2023/10/23 06:13:54;;;;;;;;;5.00;4.50;;;;;-143.90;100.00;75540.22;4992491;28;103775;-76
2023/10/23 06:16:20;;;;;;;;;3.00;2.75;;;;;-143.90;100.00;75540.22;4993168;27;102605;-76
2023/10/23 06:18:47;;;;;;;;;2.50;1.50;;;;;-143.90;100.00;75531.97;4985851;28;102114;-75
2023/10/23 06:21:14;;;;;;;;;3.25;3.00;;;;;-143.90;100.00;75521.63;4995451;27;102865;-75
2023/10/23 06:23:41;;;;;;;;;2.75;2.75;;;;;-143.90;100.00;75515.41;4993919;27;103579;-75
2023/10/23 06:26:08;;;;;;;;;1.50;1.50;;;;;-143.90;100.00;75509.22;4991356;27;101962;-75
2023/10/23 06:28:36;;;;;;;;;1.25;1.00;;;;;-143.90;100.00;75507.16;4993915;27;101826;-75
2023/10/23 06:31:10;;;;;;;;;2.50;2.00;;;;;-143.90;100.00;75500.94;5001372;27;101722;-75
2023/10/23 06:33:42;;;;;;;;;2.75;2.25;;;;;-143.90;100.00;75494.75;4989955;27;108470;-76
2023/10/23 06:36:10;;;;;;;;;2.25;2.25;;;;;-143.90;100.00;75498.88;4990821;27;102090;-75
2023/10/23 06:38:36;;;;;;;;;2.00;2.00;;;;;-143.90;100.00;75488.53;4964348;28;101766;-75
2023/10/23 06:41:04;;;;;;;;;4.00;4.00;;;;;-143.90;100.00;75484.41;4992107;27;101934;-76
2023/10/23 06:43:32;;;;;;;;;1.00;1.00;;;;;-143.90;100.00;75478.22;4976700;27;107804;-75
2023/10/23 06:45:58;;;;;;;;;2.75;2.75;;;;;-143.90;100.00;75472.00;4992471;27;101606;-74
2023/10/23 06:48:31;;;;;;;;;1.00;1.00;;;;;-143.90;100.00;75469.94;4990911;27;101933;-75
2023/10/23 06:50:59;;;;;;;;;2.00;2.00;;;;;-143.90;100.00;75463.72;4987219;27;101985;-75
2023/10/23 06:53:26;;;;;;;;;3.00;2.25;;;;;-143.90;100.00;75455.47;4971536;28;102535;-75
2023/10/23 06:55:54;;;;;;;;;2.25;2.25;;;;;-143.90;100.00;75455.47;4992949;27;101745;-76
2023/10/23 06:58:21;;;;;;;;;5.00;4.00;;;;;-143.90;100.00;75449.25;4971731;28;101567;-75
2023/10/23 07:00:48;;;;;;;;;6.50;5.50;;;;;-143.90;100.00;75436.84;4992307;27;101971;-75
2023/10/23 07:03:15;;;;;;;;;2.00;2.00;;;;;-143.90;100.00;75443.06;4993840;27;103411;-75
2023/10/23 07:05:42;;;;;;;;;1.00;1.00;;;;;-143.90;100.00;75445.13;4994831;27;101772;-75
2023/10/23 07:08:09;;;;;;;;;2.50;2.00;;;;;-143.90;100.00;75441.00;4970710;28;104701;-74
2023/10/23 07:10:36;;;;;;;;;6.50;6.50;;;;;-143.90;100.00;75424.44;4986885;28;102701;-75
2023/10/23 07:13:03;;;;;;;;;3.00;3.00;;;;;-143.90;100.00;75414.13;4978653;28;103686;-75
2023/10/23 07:15:40;;;;;;;;;3.75;3.00;;;;;-143.90;100.00;75405.84;4992166;27;101779;-74
2023/10/23 07:18:10;;;;;;;;;3.00;3.00;;;;;-143.90;100.00;75397.56;4995052;27;101410;-75
2023/10/23 07:20:36;;;;;;;;;2.00;2.00;;;;;-143.90;100.00;75378.97;4997535;27;101858;-76
2023/10/23 07:23:03;;;;;;;;;6.00;6.00;;;;;-143.90;100.00;75352.09;4997652;27;104885;-75
2023/10/23 07:25:30;;;;;;;;;10.25;8.25;;;;;-143.90;100.00;75333.47;4994682;27;101696;-75
2023/10/23 07:27:56;;;;;;;;;2.75;2.50;;;;;-143.90;100.00;75321.06;4992096;27;101548;-75
2023/10/23 07:30:24;;;;;;;;;4.50;3.75;;;;;-143.90;100.00;75316.94;4997152;27;101877;-75
2023/10/23 07:32:51;;;;;;;;;3.75;3.75;;;;;-143.90;100.00;75304.53;5000194;27;103572;-75
2023/10/23 07:35:17;;;;;;;;;3.00;2.25;;;;;-143.90;100.00;75296.25;4994232;28;101620;-75
2023/10/23 07:37:44;;;;;;;;;3.00;3.00;;;;;-143.90;100.00;75281.78;4996971;27;101580;-75
2023/10/23 07:40:11;;;;;;;;;2.25;2.25;;;;;-143.90;100.00;75271.47;4997085;27;101636;-75
2023/10/23 07:42:38;;;;;;;;;7.50;6.25;;;;;-143.90;100.00;75265.25;4981386;28;103677;-75
2023/10/23 07:45:05;;;;;;;;;3.00;3.00;;;;;-143.90;100.00;75259.06;4997631;27;104394;-74
2023/10/23 07:47:32;;;;;;;;;4.00;4.00;;;;;-143.90;100.00;75250.78;5001217;27;101712;-76
2023/10/23 07:49:58;;;;;;;;;2.50;2.50;;;;;-143.90;100.00;75242.50;4996676;27;102334;-75
2023/10/23 07:52:25;;;;;;;;;4.00;3.00;;;;;-143.90;100.00;75246.66;4993922;27;103295;-75
2023/10/23 07:54:52;;;;;;;;;4.25;3.75;;;;;-143.90;100.00;75236.31;4991655;28;101876;-75
2023/10/23 07:57:18;;;;;;;;;3.00;2.00;;;;;-143.90;100.00;75221.84;4981250;27;101789;-75
2023/10/23 07:59:45;;;;;;;;;2.50;2.50;;;;;-143.90;100.00;75215.63;4997078;27;102719;-74
2023/10/23 08:02:11;;;;;;;;;3.00;2.25;;;;;-143.90;100.00;75205.28;4979375;27;102427;-76
2023/10/23 08:04:38;;;;;;;;;3.00;3.00;;;;;-143.90;100.00;75209.44;4996405;27;102215;-73
2023/10/23 08:07:05;;;;;;;;;3.00;3.00;;;;;-143.90;100.00;75201.16;4986563;27;101738;-74
2023/10/23 08:09:32;;;;;;;;;5.50;5.50;;;;;-143.90;100.00;75192.91;4999763;27;101596;-75
2023/10/23 08:11:58;;;;;;;;;7.00;7.00;;;;;-143.90;100.00;75182.56;4999109;27;103383;-75
2023/10/23 08:14:25;;;;;;;;;6.50;5.75;;;;;-143.90;100.00;75186.69;4991553;27;101735;-76
2023/10/23 08:16:54;;;;;;;;;3.50;2.75;;;;;-143.90;100.00;75172.22;4964874;28;101998;-75
2023/10/23 08:19:20;;;;;;;;;6.00;4.25;;;;;-143.90;100.00;75172.22;4995563;27;101711;-76
2023/10/23 08:21:48;;;;;;;;;5.00;4.00;;;;;-143.90;100.00;75172.22;4997605;27;103380;-76
2023/10/23 08:24:15;;;;;;;;;8.00;6.00;;;;;-143.90;100.00;75151.53;4991198;27;101799;-75
2023/10/23 08:26:42;;;;;;;;;2.00;2.00;;;;;-143.90;100.00;75126.75;4994815;27;101905;-75
2023/10/23 08:29:09;;;;;;;;;4.00;3.00;;;;;-143.90;100.00;75093.66;4996459;27;102235;-75
2023/10/23 08:31:35;;;;;;;;;3.00;2.00;;;;;-143.90;100.00;75081.25;4996976;27;103477;-76
2023/10/23 08:34:07;;;;;;;;;7.25;6.25;;;;;-143.90;100.00;75085.38;4994829;28;107069;-77
2023/10/23 08:36:34;;;;;;;;;8.00;6.25;;;;;-143.90;100.00;75079.19;5001481;27;101819;-76
2023/10/23 08:39:02;;;;;;;;;5.00;5.00;;;;;-143.90;100.00;75060.59;4996806;28;102030;-77
2023/10/23 08:41:30;;;;;;;;;4.00;4.00;;;;;-143.90;100.00;75046.09;4995358;28;106344;-78
2023/10/23 08:43:57;;;;;;;;;3.00;2.25;;;;;-143.90;99.48;75035.78;4995906;27;101958;-77
2023/10/23 08:46:31;;;;;;;;;4.25;3.25;;;;;-143.90;96.96;75031.63;4989313;27;101844;-78
2023/10/23 08:49:01;;;;;;;;;4.75;3.50;;;;;-143.90;99.71;75023.38;4993896;28;102228;-82
2023/10/23 08:51:29;;;;;;;;;3.25;3.00;;;;;-143.90;97.06;75023.38;4997884;27;103674;-78
2023/10/23 08:54:04;;;;;;;;;4.00;4.00;;;;;-143.90;97.25;75019.22;4978915;28;107865;-78
2023/10/23 08:56:40;;;;;;;;;10.25;8.75;;;;;-143.90;97.60;75039.91;4993969;28;101744;-77
2023/10/23 08:59:09;;;;;;;;;4.25;4.25;;;;;-143.90;100.00;75008.91;4996187;28;102040;-87
2023/10/23 09:01:36;;;;;;;;;6.25;4.50;;;;;-143.90;100.00;74994.44;4999033;27;103350;-76
2023/10/23 09:04:05;;;;;;;;;4.00;4.00;;;;;-143.90;97.34;74990.28;5000805;27;102000;-78
2023/10/23 09:06:35;;;;;;;;;6.75;6.00;;;;;-143.90;95.92;74990.28;5000156;27;101809;-77
2023/10/23 09:09:05;;;;;;;;;4.00;4.00;;;;;-143.90;96.21;74984.09;4995531;27;102474;-78
2023/10/23 09:11:46;;;;;;;;;4.75;4.50;;;;;-143.90;91.51;74994.44;4996062;27;108035;-77
2023/10/23 09:14:31;;;;;;;;;5.00;4.00;;;;;-143.90;91.09;74992.38;4994127;28;101950;-77
2023/10/23 09:17:03;;;;;;;;;5.25;5.00;;;;;-143.90;96.09;74998.56;4990849;27;101875;-78
2023/10/23 09:19:36;;;;;;;;;4.00;4.00;;;;;-143.90;93.22;74973.75;4995024;27;101825;-77
2023/10/23 09:22:04;;;;;;;;;5.50;3.75;;;;;-143.90;94.84;74965.50;4995250;27;108007;-78
2023/10/23 09:24:31;;;;;;;;;3.50;3.00;;;;;-143.90;94.44;74938.59;4995238;27;101575;-78
2023/10/23 09:26:58;;;;;;;;;4.25;3.00;;;;;-143.90;92.67;74930.34;5000619;27;102079;-78
2023/10/23 09:29:28;;;;;;;;;2.25;2.25;;;;;-143.90;92.02;74917.94;4992821;27;102309;-77
2023/10/23 09:31:59;;;;;;;;;3.00;3.00;;;;;-143.90;87.82;74915.88;4940220;28;103515;-78
2023/10/23 09:34:28;;;;;;;;;4.00;4.00;;;;;-143.90;91.25;74915.88;4953415;28;101580;-78
2023/10/23 09:36:55;;;;;;;;;5.25;3.50;;;;;-143.90;88.10;74907.59;4995126;27;101644;-77
2023/10/23 09:39:22;;;;;;;;;6.00;5.00;;;;;-143.90;88.77;74903.47;4994216;27;101862;-77
2023/10/23 09:41:50;;;;;;;;;8.25;5.25;;;;;-143.90;87.98;74909.66;5001105;27;103367;-78
2023/10/23 09:44:17;;;;;;;;;3.50;3.50;;;;;-143.90;87.79;74901.41;4993339;27;101932;-78
2023/10/23 09:46:46;;;;;;;;;4.25;3.00;;;;;-143.90;88.01;74886.94;4998964;27;101973;-78
2023/10/23 09:49:15;;;;;;;;;4.00;4.00;;;;;-143.90;89.35;74903.47;4996174;27;101776;-77
2023/10/23 09:51:45;;;;;;;;;2.50;2.00;;;;;-143.90;90.57;74874.53;4992748;27;103200;-77
2023/10/23 09:54:16;;;;;;;;;3.50;3.25;;;;;-143.90;87.65;74853.84;4991671;27;101753;-77
2023/10/23 09:56:53;;;;;;;;;5.00;3.00;;;;;-143.90;90.74;74833.19;4998316;27;101671;-78
2023/10/23 09:59:34;;;;;;;;;3.25;3.25;;;;;-143.90;88.57;74800.09;4993100;28;101909;-77
2023/10/23 10:02:05;;;;;;;;;5.00;5.00;;;;;-143.90;84.02;74787.69;4981078;27;104917;-75
2023/10/23 10:04:48;;;;;;;;;3.00;3.00;;;;;-143.90;83.77;74787.69;4981098;28;102210;-78
2023/10/23 10:07:27;;;;;;;;;5.75;4.00;;;;;-143.90;83.56;74798.03;4980821;28;101571;-77
2023/10/23 10:09:54;;;;;;;;;5.00;4.00;;;;;-143.90;86.37;74779.44;4980244;28;101578;-78
2023/10/23 10:12:22;;;;;;;;;4.50;3.50;;;;;-143.90;83.95;74752.56;4981716;28;104758;-78
2023/10/23 10:14:53;;;;;;;;;3.75;2.75;;;;;-143.90;81.81;74758.75;4981634;28;101822;-78
2023/10/23 10:17:20;;;;;;;;;5.50;4.00;;;;;-143.90;81.06;74742.22;4959565;28;101974;-77
2023/10/23 10:19:47;;;;;;;;;2.00;2.00;;;;;-143.90;84.30;74721.56;4975507;28;101690;-76
2023/10/23 10:22:22;;;;;;;;;2.00;2.00;;;;;-143.90;80.25;74700.88;4991058;27;102852;-79
2023/10/23 10:24:50;;;;;;;;;3.00;3.00;;;;;-143.90;79.25;74694.69;4992266;27;101827;-77
2023/10/23 10:27:17;;;;;;;;;3.50;3.50;;;;;-143.90;78.20;74690.53;4990045;27;102062;-78
2023/10/23 10:29:44;;;;;;;;;4.00;4.00;;;;;-143.90;77.61;74707.09;4991288;28;101907;-77
2023/10/23 10:32:10;;;;;;;;;3.00;3.00;;;;;-143.90;79.25;74676.06;4993883;27;103527;-78
2023/10/23 10:34:45;;;;;;;;;3.00;2.25;;;;;-143.90;79.71;74667.81;4990271;27;101958;-77
2023/10/23 10:37:14;;;;;;;;;3.00;3.00;;;;;-143.90;77.61;74671.94;4997414;27;101953;-78
2023/10/23 10:39:46;;;;;;;;;3.00;3.00;;;;;-143.90;77.49;74655.41;4991902;27;101849;-77
2023/10/23 10:42:22;;;;;;;;;3.00;2.00;;;;;-143.90;74.39;74640.94;4963065;27;103058;-77
2023/10/23 10:44:56;;;;;;;;;3.00;3.00;;;;;-143.90;75.11;74647.13;4983741;27;101904;-78
2023/10/23 10:47:36;;;;;;;;;2.00;2.00;;;;;-143.90;74.48;74647.13;4978533;28;101883;-81
2023/10/23 10:50:05;;;;;;;;;4.67;4.00;;;;;-143.90;75.17;74643.00;4984356;28;102232;-79
2023/10/23 10:52:36;;;;;;;;;2.67;1.00;;;;;-143.90;76.55;74622.34;4980317;28;109017;-79
2023/10/23 10:55:08;;;;;;;;;2.00;2.00;;;;;-143.90;74.68;74607.84;4982892;28;101898;-78
2023/10/23 10:57:43;;;;;;;;;3.33;2.67;;;;;-143.90;73.44;74622.34;4982240;27;102011;-79
2023/10/23 11:00:12;;;;;;;;;2.00;2.00;;;;;-143.90;73.63;74620.25;4962122;28;102267;-79
2023/10/23 11:02:39;;;;;;;;;3.00;3.00;;;;;-143.90;72.65;74624.41;4967056;28;103524;-77
2023/10/23 11:05:11;;;;;;;;;2.00;2.00;;;;;-143.90;72.68;74622.34;4986427;27;101932;-75